createdAt,value
2023-05-05T00:01:14.018Z,22.33
2023-05-05T00:06:58.788Z,22.29
2023-05-05T00:12:43.485Z,22.26
2023-05-05T00:18:28.427Z,22.17
2023-05-05T00:24:13.049Z,22.11
2023-05-05T00:29:57.874Z,22.04
2023-05-05T00:35:42.774Z,21.97
2023-05-05T00:41:27.624Z,21.89
2023-05-05T00:47:12.776Z,21.86
2023-05-05T00:53:00.518Z,21.8
2023-05-05T00:58:45.672Z,21.73
2023-05-05T01:04:30.864Z,21.65
2023-05-05T01:10:21.651Z,21.58
2023-05-05T01:16:14.173Z,21.57
2023-05-05T01:22:02.216Z,21.49
2023-05-05T01:27:54.165Z,21.45
2023-05-05T01:33:43.901Z,21.45
2023-05-05T01:39:31.640Z,21.38
2023-05-05T01:45:17.931Z,21.39
2023-05-05T01:51:03.261Z,21.3
2023-05-05T01:56:49.239Z,21.27
2023-05-05T02:02:35.704Z,21.23
2023-05-05T02:08:21.522Z,21.16
2023-05-05T02:14:06.587Z,21.14
2023-05-05T02:19:52.025Z,21.07
2023-05-05T02:25:38.316Z,21
2023-05-05T02:31:23.949Z,20.97
2023-05-05T02:37:10.929Z,20.96
2023-05-05T02:42:56.070Z,20.92
2023-05-05T02:48:40.888Z,20.86
2023-05-05T02:54:26.633Z,20.83
2023-05-05T03:00:16.975Z,20.8
2023-05-05T03:06:07.814Z,20.98
2023-05-05T03:11:57.048Z,20.83
2023-05-05T03:17:43.032Z,20.75
2023-05-05T03:23:28.095Z,20.7
2023-05-05T03:29:13.096Z,20.61
2023-05-05T03:34:57.863Z,20.57
2023-05-05T03:40:44.457Z,20.5
2023-05-05T03:46:29.560Z,20.49
2023-05-05T03:52:15.016Z,20.4
2023-05-05T03:57:59.831Z,20.37
2023-05-05T04:03:44.678Z,20.3
2023-05-05T04:09:29.905Z,20.26
2023-05-05T04:15:14.850Z,20.25
2023-05-05T04:20:59.608Z,20.22
2023-05-05T04:26:44.444Z,20.17
2023-05-05T04:32:29.171Z,20.14
2023-05-05T04:38:14.070Z,20.13
2023-05-05T04:43:58.878Z,20.11
2023-05-05T04:49:43.510Z,20.09
2023-05-05T04:55:28.374Z,20.09
2023-05-05T05:01:13.081Z,20.08
2023-05-05T05:06:59.204Z,20.09
2023-05-05T05:12:44.101Z,20.2
2023-05-05T05:18:29.227Z,20.17
2023-05-05T05:24:14.073Z,20.22
2023-05-05T05:29:58.666Z,20.35
2023-05-05T05:35:43.401Z,20.53
2023-05-05T05:41:28.034Z,20.57
2023-05-05T05:47:12.759Z,20.68
2023-05-05T05:52:57.643Z,20.78
2023-05-05T05:58:42.426Z,21
2023-05-05T06:04:27.758Z,21.25
2023-05-05T06:10:26.256Z,21.42
2023-05-05T06:16:12.839Z,21.62
2023-05-05T06:21:58.023Z,21.85
2023-05-05T06:27:42.820Z,21.97
2023-05-05T06:33:27.599Z,21.97
2023-05-05T06:39:13.578Z,22.19
2023-05-05T06:44:59.902Z,22.36
2023-05-05T06:50:44.818Z,22.39
2023-05-05T06:56:30.312Z,22.59
2023-05-05T07:02:14.928Z,22.95
2023-05-05T07:07:59.542Z,23.05
2023-05-05T07:13:44.422Z,23.11
2023-05-05T07:19:29.240Z,23.07
2023-05-05T07:25:14.106Z,23.09
2023-05-05T07:30:58.938Z,23.14
2023-05-05T07:36:44.038Z,23.35
2023-05-05T07:42:29.121Z,23.57
2023-05-05T07:48:13.897Z,23.72
2023-05-05T07:53:58.855Z,23.78
2023-05-05T07:59:43.701Z,23.91
2023-05-05T08:05:28.414Z,23.99
2023-05-05T08:11:13.134Z,24.11
2023-05-05T08:16:57.980Z,24.22
2023-05-05T08:22:42.779Z,24.24
2023-05-05T08:28:27.549Z,24.29
2023-05-05T08:34:12.181Z,24.2
2023-05-05T08:39:57.008Z,24.14
2023-05-05T08:45:42.006Z,24.24
2023-05-05T08:51:27.584Z,24.2
2023-05-05T08:57:14.904Z,24.21
2023-05-05T09:03:01.244Z,24.35
2023-05-05T09:08:46.908Z,24.58
2023-05-05T09:14:31.480Z,24.77
2023-05-05T09:20:16.711Z,24.97
2023-05-05T09:26:07.901Z,25.27
2023-05-05T09:32:03.508Z,25.52
2023-05-05T09:37:49.022Z,25.72
2023-05-05T09:43:38.609Z,25.92
2023-05-05T09:49:23.540Z,26
2023-05-05T09:55:13.887Z,25.91
2023-05-05T10:00:59.028Z,25.87
2023-05-05T10:06:44.742Z,25.89
2023-05-05T10:12:29.819Z,25.85
2023-05-05T10:18:15.080Z,26.04
2023-05-05T10:24:03.733Z,26.17
2023-05-05T10:29:52.595Z,26.31
2023-05-05T10:35:40.248Z,26.34
2023-05-05T10:41:25.414Z,26.26
2023-05-05T10:47:10.722Z,26.07
2023-05-05T10:53:01.577Z,25.8
2023-05-05T10:58:58.765Z,25.6
2023-05-05T11:04:43.565Z,25.44
2023-05-05T11:10:33.234Z,25.28
2023-05-05T11:16:29.234Z,25.36
2023-05-05T11:22:14.250Z,25.53
2023-05-05T11:28:08.781Z,25.84
2023-05-05T11:33:53.844Z,26.28
2023-05-05T11:39:49.986Z,26.36
2023-05-05T11:45:34.925Z,26.65
2023-05-05T11:51:19.792Z,26.87
2023-05-05T11:57:04.596Z,26.91
2023-05-05T12:02:54.115Z,27.04
2023-05-05T12:08:40.047Z,27.19
2023-05-05T12:14:25.209Z,27.36
2023-05-05T12:20:11.356Z,27.52
2023-05-05T12:25:57.094Z,27.13
2023-05-05T12:31:42.280Z,26.91
2023-05-05T12:37:28.908Z,26.61
2023-05-05T12:43:18.501Z,26.36
2023-05-05T12:49:04.046Z,26.28
2023-05-05T12:54:59.106Z,26.43
2023-05-05T13:00:43.895Z,27
2023-05-05T13:06:28.728Z,27.29
2023-05-05T13:12:13.960Z,27.48
2023-05-05T13:18:02.723Z,27.55
2023-05-05T13:23:48.114Z,27.72
2023-05-05T13:29:32.873Z,27.89
2023-05-05T13:35:18.961Z,27.99
2023-05-05T13:41:03.589Z,28
2023-05-05T13:46:48.677Z,28.27
2023-05-05T13:52:34.763Z,28.78
2023-05-05T13:58:20.114Z,28.68
2023-05-05T14:04:05.799Z,28.85
2023-05-05T14:09:51.045Z,29.3
2023-05-05T14:15:35.733Z,29.58
2023-05-05T14:21:20.310Z,29.07
2023-05-05T14:27:04.912Z,28.89
2023-05-05T14:32:49.900Z,28.92
2023-05-05T14:38:34.873Z,28.69
2023-05-05T14:44:19.915Z,28.62
2023-05-05T14:50:04.977Z,28.58
2023-05-05T14:55:49.679Z,28.55
2023-05-05T15:01:34.382Z,28.4
2023-05-05T15:07:19.205Z,28.27
2023-05-05T15:13:03.944Z,28.22
2023-05-05T15:18:49.015Z,28.48
2023-05-05T15:24:33.735Z,28.41
2023-05-05T15:30:18.780Z,28.48
2023-05-05T15:36:03.719Z,28.53
2023-05-05T15:41:48.416Z,28.79
2023-05-05T15:47:33.349Z,28.48
2023-05-05T15:53:18.219Z,28.38
2023-05-05T15:59:02.812Z,28.59
2023-05-05T16:04:47.473Z,29.15
2023-05-05T16:10:32.769Z,29.58
2023-05-05T16:16:17.392Z,29.77
2023-05-05T16:22:02.473Z,29.91
2023-05-05T16:27:47.102Z,30.27
2023-05-05T16:33:31.624Z,31.07
2023-05-05T16:39:16.277Z,32.87
2023-05-05T16:45:00.954Z,34.42
2023-05-05T16:50:45.961Z,35.85
2023-05-05T16:56:30.604Z,38.33
2023-05-05T17:02:15.537Z,39.31
2023-05-05T17:08:00.209Z,39.27
2023-05-05T17:13:44.909Z,35.08
2023-05-05T17:19:29.580Z,35.45
2023-05-05T17:25:14.317Z,32.53
2023-05-05T17:30:59.036Z,31.37
2023-05-05T17:36:43.749Z,32.02
2023-05-05T17:42:28.145Z,31.99
2023-05-05T17:48:13.104Z,31.77
2023-05-05T17:53:57.966Z,30.65
2023-05-05T17:59:42.561Z,30.06
2023-05-05T18:05:27.191Z,29.52
2023-05-05T18:11:11.950Z,29.16
2023-05-05T18:16:56.725Z,28.77
2023-05-05T18:22:41.427Z,28.34
2023-05-05T18:28:26.980Z,27.9
2023-05-05T18:34:11.789Z,27.48
2023-05-05T18:39:56.343Z,27.19
2023-05-05T18:45:40.886Z,26.98
2023-05-05T18:51:25.943Z,26.71
2023-05-05T18:57:10.616Z,26.45
2023-05-05T19:02:55.268Z,26.24
2023-05-05T19:08:40.047Z,26.13
2023-05-05T19:14:24.794Z,25.95
2023-05-05T19:20:10.268Z,25.78
2023-05-05T19:25:55.028Z,25.63
2023-05-05T19:31:39.911Z,25.52
2023-05-05T19:37:24.884Z,25.33
2023-05-05T19:43:09.673Z,25.16
2023-05-05T19:48:54.596Z,24.99
2023-05-05T19:54:39.325Z,24.82
2023-05-05T20:00:23.905Z,24.76
2023-05-05T20:06:08.431Z,24.93
2023-05-05T20:11:52.872Z,25.03
2023-05-05T20:17:37.780Z,24.85
2023-05-05T20:23:22.681Z,24.47
2023-05-05T20:29:07.243Z,24.17
2023-05-05T20:34:52.105Z,24
2023-05-05T20:40:36.922Z,23.91
2023-05-05T20:46:21.519Z,23.76
2023-05-05T20:52:06.524Z,23.64
2023-05-05T20:57:53.010Z,23.51
2023-05-05T21:03:40.063Z,23.4
2023-05-05T21:09:24.710Z,23.32
2023-05-05T21:15:10.916Z,23.24
2023-05-05T21:20:55.988Z,23.13
2023-05-05T21:26:41.938Z,23.02
2023-05-05T21:32:27.085Z,22.92
2023-05-05T21:38:12.895Z,22.83
2023-05-05T21:43:57.697Z,22.78
2023-05-05T21:49:42.696Z,22.7
2023-05-05T21:55:27.390Z,22.63
2023-05-05T22:01:12.266Z,22.56
2023-05-05T22:06:57.043Z,22.55
2023-05-05T22:12:41.784Z,22.41
2023-05-05T22:18:26.645Z,22.34
2023-05-05T22:24:11.344Z,22.16
2023-05-05T22:29:55.984Z,22.04
2023-05-05T22:35:41.101Z,21.92
2023-05-05T22:41:25.721Z,21.84
2023-05-05T22:47:10.539Z,21.78
2023-05-05T22:52:55.499Z,21.67
2023-05-05T22:58:40.303Z,21.61
2023-05-05T23:04:25.136Z,21.52
2023-05-05T23:10:10.856Z,21.45
2023-05-05T23:15:55.663Z,21.42
2023-05-05T23:21:49.668Z,21.36
2023-05-05T23:27:38.189Z,21.32
2023-05-05T23:33:23.063Z,21.25
2023-05-05T23:39:08.010Z,21.19
2023-05-05T23:44:52.856Z,21.14
2023-05-05T23:50:37.472Z,21.05
2023-05-05T23:56:22.160Z,20.97
